Gunnison, CO (81230)

7:47 PM MST on January 16, 2017 (GMT -0700)
Hartman Rocks | | Change Station

Elev 7671 ft 38.51 °N, 106.94 °W | Updated 10 seconds ago

Light Snow
Light Snow Mist
22.7 °F
Feels Like 23 °F
N
0.0
Wind Variable Wind from SSW

Today
High -- | Low -- °F
--% Chance of Precip.
Yesterday
High -- | Low -- °F
Precip. -- in
Pressure 30.18 in
Visibility 5.0 miles
Clouds Clear
Windchill 23 °F
Dew Point 20 °F
Humidity 91%
Rainfall 0.15 in
Snow Depth Not available.
7:23 AM 5:12 PM
Waning Gibbous, 76% visible
METAR KGUC 170156Z AUTO 00000KT 5SM -SN BR CLR M03/M04 A3007 RMK AO2 SLP219 P0000 T10281039 FZRANO
Pressure 30.18 in
Visibility 5.0 miles
Clouds Clear
Windchill 23 °F
Dew Point 20 °F
Humidity 91%
Rainfall 0.15 in
Snow Depth Not available.
7:23 AM 5:12 PM
Waning Gibbous, 76% visible
METAR KGUC 170156Z AUTO 00000KT 5SM -SN BR CLR M03/M04 A3007 RMK AO2 SLP219 P0000 T10281039 FZRANO

Get Your Daily Forecast Email!

Thanks for signing up!

Be on the lookout for a verification email in your inbox.

You'll start receiving the daily forecast at 8 AM.

×

10-Day Weather Forecast

Almanac

Astronomy

Jan. 16, 2017 Rise Set
Actual Time
Civil Twilight
Nautical Twilight
Astronomical Twilight
Moon
Length of Visible Light
Length of Day
Tomorrow will be .
, % of the Moon is Illuminated

Today's Extremes

State Highs State Lows

Community

WunderPhotos

Upload Photos

1,962,540 photos uploaded!

WunderBlog® & News

Nearby

Air Quality

  Air Quality AQ Index Pollutant
Not available.

Snow Depth

Station Depth Elevation

Earthquake Activity

City Distance Mag. Time & Date
Minimum magnitude displayed is 2.5.

Coastal Water Temperatures

Place Temperature

Stations

Nearby Weather Stations

Station Location Temp. Windchill Dew Point Humidity Wind Precip. Elev Updated Type
                   

Watches & Warnings

There are currently no watches in effect.